createdAt,value
2023-01-11T00:08:59.531Z,100371.59
2023-01-11T00:19:05.002Z,100365.09
2023-01-11T00:29:08.672Z,100345.56
2023-01-11T00:39:14.119Z,100330.03
2023-01-11T00:49:17.784Z,100316.19
2023-01-11T00:59:22.811Z,100309.91
2023-01-11T01:09:26.601Z,100295.63
2023-01-11T01:19:32.415Z,100295.16
2023-01-11T01:29:35.969Z,100285.50
2023-01-11T01:39:41.748Z,100294.53
2023-01-11T01:49:46.873Z,100294.78
2023-01-11T01:59:54.356Z,100305.38
2023-01-11T02:10:04.874Z,100285.41
2023-01-11T02:20:46.160Z,100284.38
2023-01-11T02:31:01.897Z,100260.06
2023-01-11T02:41:15.203Z,100236.88
2023-01-11T02:51:28.296Z,100247.81
2023-01-11T03:01:31.918Z,100237.50
2023-01-11T03:12:17.782Z,100216.13
2023-01-11T03:22:29.944Z,100204.13
2023-01-11T03:32:44.591Z,100181.50
2023-01-11T03:43:09.963Z,100179.81
2023-01-11T03:53:18.381Z,100184.75
2023-01-11T04:03:25.489Z,100159.69
2023-01-11T04:13:32.366Z,100147.47
2023-01-11T04:23:36.189Z,100149.75
2023-01-11T04:33:41.162Z,100139.88
2023-01-11T04:43:45.074Z,100117.16
2023-01-11T04:53:51.554Z,100119.91
2023-01-11T05:03:56.132Z,100115.22
2023-01-11T05:14:01.056Z,100109.25
2023-01-11T05:24:08.230Z,100098.31
2023-01-11T05:34:14.813Z,100087.22
2023-01-11T05:44:36.936Z,100076.09
2023-01-11T05:54:41.835Z,100064.25
2023-01-11T06:04:45.469Z,100069.31
2023-01-11T06:14:51.353Z,100070.25
2023-01-11T06:24:54.965Z,100043.41
2023-01-11T06:34:59.905Z,100018.25
2023-01-11T06:45:03.568Z,100012.47
2023-01-11T06:55:10.141Z,100009.53
2023-01-11T07:05:14.585Z,100008.81
2023-01-11T07:15:19.943Z,100012.41
2023-01-11T07:25:23.556Z,100015.31
2023-01-11T07:35:29.183Z,100023.88
2023-01-11T07:45:44.553Z,100030.97
2023-01-11T07:55:50.274Z,100035.50
2023-01-11T08:05:54.498Z,100032.16
2023-01-11T08:16:00.652Z,100029.63
2023-01-11T08:26:04.359Z,100033.84
2023-01-11T08:36:12.699Z,100009.81
2023-01-11T08:46:16.735Z,100018.22
2023-01-11T08:56:21.939Z,100029.13
2023-01-11T09:06:25.629Z,100025.88
2023-01-11T09:16:31.707Z,100026.97
2023-01-11T09:26:35.670Z,100023.22
2023-01-11T09:36:41.145Z,100029.88
2023-01-11T09:46:51.159Z,100039.84
2023-01-11T09:57:11.553Z,100040.34
2023-01-11T10:07:37.325Z,100034.50
2023-01-11T10:18:37.060Z,100032.81
2023-01-11T10:28:24.993Z,100035.38
2023-01-11T10:38:57.698Z,100034.41
2023-01-11T10:49:30.544Z,100036.00
2023-01-11T10:59:56.403Z,100053.50
2023-01-11T11:10:12.494Z,100063.72
2023-01-11T11:20:19.913Z,100050.75
2023-01-11T11:30:30.371Z,100025.66
2023-01-11T11:40:38.374Z,100010.75
2023-01-11T11:50:45.472Z,100019.31
2023-01-11T12:00:53.463Z,99994.03
2023-01-11T12:11:00.192Z,100022.66
2023-01-11T12:21:21.915Z,100035.25
2023-01-11T12:31:39.319Z,100036.75
2023-01-11T12:42:02.628Z,100031.00
2023-01-11T12:52:35.906Z,100036.06
2023-01-11T13:03:10.339Z,100048.31
2023-01-11T13:13:20.547Z,100062.22
2023-01-11T13:23:40.017Z,100067.28
2023-01-11T13:33:52.684Z,100056.84
2023-01-11T13:44:04.803Z,100067.94
2023-01-11T13:54:16.515Z,100078.00
2023-01-11T14:04:29.024Z,100086.19
2023-01-11T14:15:00.376Z,100114.63
2023-01-11T14:25:10.612Z,100121.28
2023-01-11T14:35:56.076Z,100123.56
2023-01-11T14:46:47.625Z,100158.06
2023-01-11T14:56:55.229Z,100169.88
2023-01-11T15:07:00.919Z,100189.59
2023-01-11T15:17:22.133Z,100217.41
2023-01-11T15:27:33.339Z,100203.97
2023-01-11T15:37:49.671Z,100216.47
2023-01-11T15:48:21.082Z,100234.25
2023-01-11T15:59:13.357Z,100264.47
2023-01-11T16:09:58.910Z,100276.66
2023-01-11T16:20:22.897Z,100286.13
2023-01-11T16:30:29.055Z,100289.47
2023-01-11T16:40:36.901Z,100303.72
2023-01-11T16:50:45.943Z,100321.50
2023-01-11T17:01:00.269Z,100333.09
2023-01-11T17:11:20.311Z,100345.22
2023-01-11T17:21:27.204Z,100362.72
2023-01-11T17:31:36.136Z,100376.78
2023-01-11T17:41:57.699Z,100394.13
2023-01-11T17:52:20.376Z,100409.63
2023-01-11T18:02:24.241Z,100415.88
2023-01-11T18:12:32.998Z,100435.41
2023-01-11T18:22:40.514Z,100449.13
2023-01-11T18:32:45.715Z,100461.00
2023-01-11T18:42:52.162Z,100468.53
2023-01-11T18:52:57.737Z,100474.53
2023-01-11T19:03:01.515Z,100482.81
2023-01-11T19:13:06.683Z,100492.16
2023-01-11T19:23:10.922Z,100510.25
2023-01-11T19:33:15.963Z,100523.50
2023-01-11T19:43:19.690Z,100516.47
2023-01-11T19:53:24.705Z,100512.03
2023-01-11T20:03:29.975Z,100488.66
2023-01-11T20:13:35.507Z,100489.25
2023-01-11T20:23:41.587Z,100495.34
2023-01-11T20:33:46.906Z,100505.03
2023-01-11T20:43:50.552Z,100508.34
2023-01-11T20:53:56.772Z,100491.59
2023-01-11T21:04:03.262Z,100478.19
2023-01-11T21:14:12.002Z,100467.31
2023-01-11T21:24:21.658Z,100471.19
2023-01-11T21:34:26.771Z,100452.28
2023-01-11T21:44:33.614Z,100442.22
2023-01-11T21:54:38.787Z,100446.09
2023-01-11T22:04:42.418Z,100456.44
2023-01-11T22:14:47.441Z,100460.91
2023-01-11T22:24:51.166Z,100478.50
2023-01-11T22:34:56.583Z,100464.69
2023-01-11T22:45:00.189Z,100451.84
2023-01-11T22:55:06.549Z,100465.53
2023-01-11T23:05:10.459Z,100470.78
2023-01-11T23:15:15.612Z,100468.38
2023-01-11T23:25:19.325Z,100448.53
2023-01-11T23:35:24.305Z,100451.53
2023-01-11T23:45:27.895Z,100457.78
2023-01-11T23:55:32.961Z,100443.81
